createdAt,value
2018-07-06T00:02:35.108Z,18.12
2018-07-06T00:05:40.681Z,18.13
2018-07-06T00:08:46.358Z,18.12
2018-07-06T00:11:52.112Z,18.09
2018-07-06T00:14:57.649Z,18.11
2018-07-06T00:18:03.148Z,18.15
2018-07-06T00:21:08.934Z,18.20
2018-07-06T00:24:14.245Z,18.26
2018-07-06T00:27:19.763Z,18.29
2018-07-06T00:30:25.392Z,18.37
2018-07-06T00:33:30.630Z,18.40
2018-07-06T00:36:36.246Z,18.43
2018-07-06T00:39:41.939Z,18.87
2018-07-06T00:42:47.651Z,18.65
2018-07-06T00:45:52.922Z,18.67
2018-07-06T00:48:58.494Z,18.65
2018-07-06T00:52:03.943Z,19.05
2018-07-06T00:55:10.973Z,18.76
2018-07-06T00:58:16.460Z,19.17
2018-07-06T01:01:21.659Z,18.86
2018-07-06T01:04:27.044Z,19.27
2018-07-06T01:07:32.490Z,18.93
2018-07-06T01:10:38.164Z,18.86
2018-07-06T01:13:43.940Z,18.79
2018-07-06T01:16:49.359Z,18.70
2018-07-06T01:19:54.663Z,18.58
2018-07-06T01:23:03.499Z,18.51
2018-07-06T01:26:08.789Z,18.54
2018-07-06T01:29:13.820Z,18.54
2018-07-06T01:32:19.083Z,18.58
2018-07-06T01:35:24.783Z,18.60
2018-07-06T01:38:30.266Z,18.61
2018-07-06T01:41:35.747Z,18.62
2018-07-06T01:44:41.431Z,18.55
2018-07-06T01:47:47.229Z,18.59
2018-07-06T01:50:52.837Z,18.62
2018-07-06T01:53:58.197Z,18.62
2018-07-06T01:57:03.967Z,18.59
2018-07-06T02:00:09.186Z,18.60
2018-07-06T02:03:14.509Z,18.66
2018-07-06T02:06:20.106Z,19.00
2018-07-06T02:09:25.532Z,18.80
2018-07-06T02:12:30.930Z,18.73
2018-07-06T02:15:36.170Z,18.83
2018-07-06T02:18:41.712Z,18.84
2018-07-06T02:21:47.005Z,18.84
2018-07-06T02:24:52.463Z,18.84
2018-07-06T02:27:58.064Z,18.91
2018-07-06T02:31:03.500Z,18.91
2018-07-06T02:34:08.928Z,18.87
2018-07-06T02:37:14.540Z,18.87
2018-07-06T02:40:20.061Z,18.93
2018-07-06T02:43:25.467Z,18.88
2018-07-06T02:46:30.799Z,18.88
2018-07-06T02:49:36.347Z,18.89
2018-07-06T02:52:41.552Z,18.88
2018-07-06T02:55:47.033Z,18.83
2018-07-06T02:58:52.647Z,18.94
2018-07-06T03:01:58.094Z,18.96
2018-07-06T03:05:03.887Z,18.94
2018-07-06T03:08:09.518Z,18.93
2018-07-06T03:11:14.910Z,18.94
2018-07-06T03:14:20.303Z,18.94
2018-07-06T03:17:25.848Z,18.90
2018-07-06T03:20:31.244Z,19.18
2018-07-06T03:23:36.414Z,19.40
2018-07-06T03:26:41.605Z,19.24
2018-07-06T03:29:47.188Z,19.15
2018-07-06T03:32:55.805Z,19.16
2018-07-06T03:36:01.578Z,19.14
2018-07-06T03:39:07.129Z,19.17
2018-07-06T03:42:12.718Z,19.18
2018-07-06T03:45:18.005Z,19.17
2018-07-06T03:48:28.034Z,19.28
2018-07-06T03:51:33.504Z,19.49
2018-07-06T03:54:38.766Z,19.34
2018-07-06T03:57:43.968Z,19.31
2018-07-06T04:00:49.180Z,19.38
2018-07-06T04:03:54.499Z,19.58
2018-07-06T04:06:59.895Z,19.70
2018-07-06T04:10:05.577Z,19.81
2018-07-06T04:13:11.346Z,19.54
2018-07-06T04:16:16.365Z,19.46
2018-07-06T04:19:21.715Z,19.42
2018-07-06T04:22:27.172Z,19.79
2018-07-06T04:25:32.345Z,19.51
2018-07-06T04:28:37.594Z,19.44
2018-07-06T04:31:42.805Z,19.41
2018-07-06T04:34:48.254Z,19.41
2018-07-06T04:37:54.113Z,19.81
2018-07-06T04:40:59.454Z,19.60
2018-07-06T04:44:04.915Z,19.57
2018-07-06T04:47:10.203Z,19.42
2018-07-06T04:50:15.658Z,19.44
2018-07-06T04:53:21.006Z,19.55
2018-07-06T04:56:26.462Z,19.54
2018-07-06T04:59:32.142Z,19.60
2018-07-06T05:02:37.570Z,19.68
2018-07-06T05:05:42.825Z,19.76
2018-07-06T05:08:48.529Z,19.80
2018-07-06T05:11:53.821Z,19.79
2018-07-06T05:14:59.109Z,19.88
2018-07-06T05:18:04.386Z,19.94
2018-07-06T05:21:09.660Z,19.99
2018-07-06T05:24:15.249Z,20.06
2018-07-06T05:27:20.738Z,20.14
2018-07-06T05:30:26.415Z,20.19
2018-07-06T05:33:32.016Z,20.28
2018-07-06T05:36:37.221Z,20.32
2018-07-06T05:39:42.637Z,20.34
2018-07-06T05:42:48.053Z,20.38
2018-07-06T05:45:53.493Z,20.42
2018-07-06T05:48:58.894Z,20.45
2018-07-06T05:52:04.213Z,20.45
2018-07-06T05:55:09.547Z,20.53
2018-07-06T05:58:15.268Z,20.54
2018-07-06T06:01:20.668Z,20.60
2018-07-06T06:04:25.820Z,20.70
2018-07-06T06:07:23.581Z,20.71
2018-07-06T06:09:52.660Z,20.78
2018-07-06T06:12:21.768Z,20.76
2018-07-06T06:14:51.761Z,20.73
2018-07-06T06:17:20.575Z,20.71
2018-07-06T06:19:49.558Z,20.75
2018-07-06T06:22:18.614Z,20.79
2018-07-06T06:24:47.581Z,20.93
2018-07-06T06:27:16.663Z,21.10
2018-07-06T06:29:46.614Z,21.24
2018-07-06T06:32:16.176Z,21.34
2018-07-06T06:34:45.184Z,21.53
2018-07-06T06:37:14.468Z,21.72
2018-07-06T06:39:43.463Z,22.11
2018-07-06T06:42:14.574Z,22.45
2018-07-06T06:44:41.528Z,22.81
2018-07-06T06:47:10.518Z,22.73
2018-07-06T06:49:39.523Z,23.12
2018-07-06T06:52:08.478Z,23.09
2018-07-06T06:54:37.616Z,23.46
2018-07-06T06:57:06.767Z,24.92
2018-07-06T06:59:39.356Z,24.71
2018-07-06T07:02:08.356Z,24.11
2018-07-06T07:04:37.392Z,23.82
2018-07-06T07:07:06.416Z,24.20
2018-07-06T07:09:35.439Z,24.22
2018-07-06T07:12:06.786Z,23.91
2018-07-06T07:14:35.833Z,23.84
2018-07-06T07:17:05.863Z,23.84
2018-07-06T07:19:35.173Z,23.72
2018-07-06T07:22:07.116Z,23.72
2018-07-06T07:24:36.301Z,25.31
2018-07-06T07:27:05.554Z,28.14
2018-07-06T07:29:37.774Z,29.89
2018-07-06T07:32:11.182Z,31.54
2018-07-06T07:34:41.474Z,33.05
2018-07-06T07:37:11.830Z,34.14
2018-07-06T07:39:42.633Z,34.74
2018-07-06T07:42:18.717Z,34.21
2018-07-06T07:44:48.722Z,31.84
2018-07-06T07:47:19.152Z,31.73
2018-07-06T07:49:49.281Z,30.66
2018-07-06T07:52:55.104Z,30.39
2018-07-06T07:55:25.052Z,29.89
2018-07-06T07:57:55.064Z,29.97
2018-07-06T08:00:25.147Z,30.77
2018-07-06T08:02:55.290Z,30.62
2018-07-06T08:05:26.049Z,30.29
2018-07-06T08:07:56.778Z,29.51
2018-07-06T08:10:26.792Z,28.93
2018-07-06T08:12:59.579Z,28.60
2018-07-06T08:15:29.878Z,28.18
2018-07-06T08:18:05.824Z,27.85
2018-07-06T08:20:35.915Z,28.14
2018-07-06T08:23:09.611Z,29.57
2018-07-06T08:25:39.810Z,31.90
2018-07-06T08:28:10.298Z,33.18
2018-07-06T08:30:44.949Z,32.91
2018-07-06T08:33:13.772Z,32.23
2018-07-06T08:36:38.697Z,32.82
2018-07-06T08:39:12.257Z,34.00
2018-07-06T08:41:39.660Z,34.93
2018-07-06T08:44:08.572Z,36.18
2018-07-06T08:46:40.282Z,36.94
2018-07-06T08:49:09.259Z,36.59
2018-07-06T08:51:38.201Z,37.03
2018-07-06T08:54:08.716Z,37.47
2018-07-06T08:56:40.450Z,36.51
2018-07-06T08:59:11.382Z,34.69
2018-07-06T09:01:44.453Z,33.51
2018-07-06T09:04:44.636Z,32.73
2018-07-06T09:07:15.834Z,32.86
2018-07-06T09:09:42.665Z,33.14
2018-07-06T09:12:18.973Z,33.31
2018-07-06T09:14:48.343Z,33.44
2018-07-06T09:17:18.422Z,33.71
2018-07-06T09:19:51.019Z,33.85
2018-07-06T09:22:20.640Z,34.34
2018-07-06T09:24:53.784Z,34.64
2018-07-06T09:27:22.805Z,35.01
2018-07-06T09:29:51.962Z,35.76
2018-07-06T09:32:23.496Z,36.71
2018-07-06T09:34:52.370Z,37.34
2018-07-06T09:37:21.507Z,37.93
2018-07-06T09:39:55.723Z,38.39
2018-07-06T09:42:22.669Z,38.92
2018-07-06T09:44:51.684Z,38.95
2018-07-06T09:47:20.788Z,39.49
2018-07-06T09:49:49.721Z,39.95
2018-07-06T09:52:18.926Z,40.16
2018-07-06T09:54:47.910Z,39.33
2018-07-06T09:57:23.261Z,39.62
2018-07-06T09:59:58.200Z,40.07
2018-07-06T10:02:27.186Z,40.01
2018-07-06T10:05:00.937Z,40.10
2018-07-06T10:07:27.497Z,40.24
2018-07-06T10:09:56.558Z,40.03
2018-07-06T10:12:25.644Z,40.21
2018-07-06T10:14:54.649Z,40.39
2018-07-06T10:17:23.961Z,40.05
2018-07-06T10:19:53.139Z,40.32
2018-07-06T10:22:29.155Z,40.60
2018-07-06T10:24:58.069Z,40.36
2018-07-06T10:28:53.908Z,40.47
2018-07-06T10:32:53.492Z,39.99
2018-07-06T10:35:22.732Z,39.03
2018-07-06T10:37:54.395Z,38.04
2018-07-06T10:40:23.485Z,36.68
2018-07-06T10:42:52.459Z,35.74
2018-07-06T10:45:23.611Z,35.43
2018-07-06T10:47:52.756Z,34.69
2018-07-06T10:50:21.865Z,34.78
2018-07-06T10:53:11.952Z,35.23
2018-07-06T10:55:38.038Z,34.99
2018-07-06T10:58:08.666Z,34.60
2018-07-06T11:00:36.340Z,34.14
2018-07-06T11:03:05.420Z,33.72
2018-07-06T11:05:34.446Z,33.39
2018-07-06T11:08:03.479Z,33.33
2018-07-06T11:10:32.461Z,33.12
2018-07-06T11:13:04.450Z,32.82
2018-07-06T11:15:35.723Z,32.79
2018-07-06T11:18:04.834Z,33.23
2018-07-06T11:20:34.351Z,33.52
2018-07-06T11:23:06.093Z,34.08
2018-07-06T11:25:35.102Z,34.17
2018-07-06T11:28:05.824Z,35.13
2018-07-06T11:30:34.825Z,35.23
2018-07-06T11:33:05.574Z,35.44
2018-07-06T11:35:34.566Z,35.64
2018-07-06T11:38:06.399Z,35.07
2018-07-06T11:40:35.462Z,34.38
2018-07-06T11:43:04.684Z,33.83
2018-07-06T11:45:33.695Z,33.75
2018-07-06T11:48:02.719Z,33.77
2018-07-06T11:50:31.870Z,34.41
2018-07-06T11:53:00.912Z,34.94
2018-07-06T11:55:30.383Z,34.90
2018-07-06T11:57:59.491Z,34.97
2018-07-06T12:00:28.941Z,34.94
2018-07-06T12:02:58.059Z,34.83
2018-07-06T12:05:27.117Z,34.72
2018-07-06T12:07:56.133Z,34.44
2018-07-06T12:10:25.186Z,34.31
2018-07-06T12:12:56.899Z,34.15
2018-07-06T12:15:27.767Z,33.58
2018-07-06T12:17:57.183Z,33.17
2018-07-06T12:20:28.201Z,33.10
2018-07-06T12:22:55.506Z,33.19
2018-07-06T12:25:26.760Z,33.16
2018-07-06T12:27:55.752Z,32.75
2018-07-06T12:30:27.387Z,32.31
2018-07-06T12:32:56.617Z,32.03
2018-07-06T12:35:28.291Z,32.15
2018-07-06T12:37:57.876Z,32.31
2018-07-06T12:40:26.784Z,32.58
2018-07-06T12:42:56.001Z,32.55
2018-07-06T12:45:25.126Z,32.46
2018-07-06T12:47:54.042Z,32.36
2018-07-06T12:50:23.173Z,32.18
2018-07-06T12:52:56.991Z,32.36
2018-07-06T12:55:26.059Z,32.32
2018-07-06T12:57:55.184Z,32.52
2018-07-06T13:00:24.353Z,32.82
2018-07-06T13:02:53.454Z,32.99
2018-07-06T13:05:22.368Z,32.91
2018-07-06T13:07:51.512Z,32.95
2018-07-06T13:10:20.693Z,32.81
2018-07-06T13:12:49.656Z,32.53
2018-07-06T13:15:18.934Z,32.10
2018-07-06T13:17:48.025Z,31.81
2018-07-06T13:20:16.993Z,31.77
2018-07-06T13:22:46.402Z,31.80
2018-07-06T13:25:18.743Z,31.69
2018-07-06T13:27:47.963Z,31.54
2018-07-06T13:30:21.798Z,31.48
2018-07-06T13:32:51.589Z,31.44
2018-07-06T13:35:20.391Z,31.45
2018-07-06T13:37:50.341Z,31.18
2018-07-06T13:40:22.906Z,31.15
2018-07-06T13:42:52.041Z,31.14
2018-07-06T13:45:21.184Z,31.18
2018-07-06T13:47:50.358Z,31.13
2018-07-06T13:50:24.808Z,31.10
2018-07-06T13:52:54.924Z,31.18
2018-07-06T13:55:26.517Z,31.41
2018-07-06T13:58:02.319Z,31.59
2018-07-06T14:00:29.482Z,31.71
2018-07-06T14:02:58.470Z,31.72
2018-07-06T14:05:27.467Z,31.74
2018-07-06T14:07:56.473Z,31.63
2018-07-06T14:10:25.526Z,31.64
2018-07-06T14:12:56.846Z,31.73
2018-07-06T14:15:28.127Z,31.78
2018-07-06T14:17:59.602Z,31.68
2018-07-06T14:20:28.823Z,31.50
2018-07-06T14:23:00.861Z,31.34
2018-07-06T14:25:29.869Z,31.28
2018-07-06T14:27:59.147Z,31.37
2018-07-06T14:30:28.114Z,31.46
2018-07-06T14:32:57.104Z,31.49
2018-07-06T14:35:26.436Z,31.44
2018-07-06T14:37:55.365Z,31.30
2018-07-06T14:40:24.309Z,31.21
2018-07-06T14:42:53.352Z,31.09
2018-07-06T14:45:23.678Z,31.05
2018-07-06T14:48:01.449Z,30.92
2018-07-06T14:50:30.386Z,30.84
2018-07-06T14:52:59.416Z,30.80
2018-07-06T14:55:31.301Z,30.88
2018-07-06T14:58:02.857Z,30.68
2018-07-06T15:00:31.786Z,30.58
2018-07-06T15:03:00.846Z,30.51
2018-07-06T15:05:30.043Z,30.45
2018-07-06T15:07:58.934Z,30.40
2018-07-06T15:10:28.018Z,30.40
2018-07-06T15:13:30.447Z,30.36
2018-07-06T15:16:39.438Z,30.43
2018-07-06T15:30:07.658Z,30.88
2018-07-06T15:33:27.050Z,30.75
2018-07-06T15:37:12.110Z,30.65
2018-07-06T15:39:45.118Z,30.52
2018-07-06T15:42:26.026Z,30.57
2018-07-06T15:45:55.102Z,30.26
2018-07-06T15:49:25.174Z,30.21
2018-07-06T16:03:15.380Z,29.39
2018-07-06T16:06:43.818Z,29.12
2018-07-06T16:09:17.557Z,29.00
2018-07-06T16:11:54.049Z,28.98
2018-07-06T16:14:50.669Z,29.00
2018-07-06T16:17:55.212Z,29.11
2018-07-06T16:20:49.044Z,29.25
2018-07-06T16:26:51.573Z,29.38
2018-07-06T16:30:25.093Z,29.39
2018-07-06T16:33:30.136Z,29.45
2018-07-06T16:36:17.808Z,29.41
2018-07-06T16:45:28.590Z,29.41
2018-07-06T17:02:27.967Z,29.05
2018-07-06T17:08:49.293Z,28.72
2018-07-06T17:14:49.922Z,28.60
2018-07-06T17:18:20.849Z,28.57
2018-07-06T17:21:48.901Z,28.64
2018-07-06T17:24:37.517Z,28.52
2018-07-06T17:31:15.898Z,28.46
2018-07-06T17:34:29.348Z,28.34
2018-07-06T17:40:10.358Z,28.29
2018-07-06T17:43:17.586Z,28.17
2018-07-06T17:46:15.968Z,28.08
2018-07-06T17:48:59.473Z,28.03
2018-07-06T17:51:54.121Z,27.91
2018-07-06T17:54:23.716Z,27.89
2018-07-06T17:57:21.447Z,27.84
2018-07-06T18:00:34.201Z,27.74
2018-07-06T18:03:20.397Z,27.67
2018-07-06T18:17:05.523Z,27.39
2018-07-06T18:30:27.238Z,26.99
2018-07-06T18:41:01.742Z,26.64
2018-07-06T18:44:15.010Z,26.48
2018-07-06T18:51:18.141Z,26.28
2018-07-06T18:54:28.797Z,26.36
2018-07-06T19:03:21.875Z,26.13
2018-07-06T19:07:48.684Z,26.07
2018-07-06T19:09:15.082Z,26.00
2018-07-06T19:12:16.476Z,25.96
2018-07-06T19:18:33.698Z,25.87
2018-07-06T19:21:40.965Z,25.88
2018-07-06T19:25:52.729Z,25.80
2018-07-06T19:28:59.198Z,25.77
2018-07-06T19:31:36.396Z,25.75
2018-07-06T19:34:29.289Z,25.73
2018-07-06T19:37:01.811Z,25.67
2018-07-06T19:39:30.653Z,25.52
2018-07-06T19:41:59.843Z,25.53
2018-07-06T19:44:29.801Z,25.41
2018-07-06T19:46:58.969Z,25.41
2018-07-06T19:49:31.082Z,25.29
2018-07-06T19:52:00.235Z,25.17
2018-07-06T19:54:29.099Z,25.10
2018-07-06T19:56:58.205Z,25.08
2018-07-06T19:59:27.194Z,25.21
2018-07-06T20:01:56.360Z,24.93
2018-07-06T20:04:25.258Z,24.92
2018-07-06T20:06:54.423Z,24.83
2018-07-06T20:09:23.306Z,24.75
2018-07-06T20:11:52.239Z,24.66
2018-07-06T20:14:21.287Z,24.52
2018-07-06T20:16:50.400Z,24.36
2018-07-06T20:19:19.526Z,24.27
2018-07-06T20:22:08.031Z,24.17
2018-07-06T20:24:38.740Z,24.10
2018-07-06T20:27:12.953Z,23.99
2018-07-06T20:29:43.438Z,23.88
2018-07-06T20:32:26.185Z,23.81
2018-07-06T20:34:56.169Z,23.73
2018-07-06T20:37:26.905Z,23.68
2018-07-06T20:39:58.786Z,23.63
2018-07-06T20:42:35.100Z,23.56
2018-07-06T20:45:04.134Z,23.43
2018-07-06T20:47:35.768Z,23.31
2018-07-06T20:50:04.862Z,23.23
2018-07-06T20:52:36.377Z,23.16
2018-07-06T20:55:05.677Z,23.12
2018-07-06T20:57:37.127Z,23.09
2018-07-06T21:00:06.371Z,22.89
2018-07-06T21:02:39.368Z,22.88
2018-07-06T21:05:08.388Z,22.79
2018-07-06T21:07:35.565Z,22.69
2018-07-06T21:10:04.995Z,22.55
2018-07-06T21:12:33.927Z,22.51
2018-07-06T21:15:03.015Z,22.39
2018-07-06T21:17:32.247Z,22.30
2018-07-06T21:20:04.172Z,22.23
2018-07-06T21:22:33.467Z,22.14
2018-07-06T21:25:02.552Z,22.07
2018-07-06T21:27:31.714Z,22.02
2018-07-06T21:30:00.972Z,21.95
2018-07-06T21:32:30.285Z,21.85
2018-07-06T21:34:59.553Z,21.82
2018-07-06T21:37:28.761Z,21.85
2018-07-06T21:40:00.139Z,21.88
2018-07-06T21:42:37.191Z,21.78
2018-07-06T21:45:06.437Z,21.96
2018-07-06T21:47:37.187Z,21.76
2018-07-06T21:50:06.337Z,21.58
2018-07-06T21:52:38.230Z,21.51
2018-07-06T21:55:07.439Z,21.42
2018-07-06T21:57:36.663Z,21.35
2018-07-06T22:00:11.854Z,21.28
2018-07-06T22:02:41.132Z,21.19
2018-07-06T22:05:12.949Z,21.08
2018-07-06T22:07:44.405Z,21.05
2018-07-06T22:10:13.435Z,20.95
2018-07-06T22:12:42.655Z,20.80
2018-07-06T22:15:14.348Z,20.73
2018-07-06T22:17:43.256Z,20.70
2018-07-06T22:20:15.037Z,20.66
2018-07-06T22:22:46.375Z,20.62
2018-07-06T22:25:18.516Z,20.55
2018-07-06T22:27:50.683Z,20.55
2018-07-06T22:30:19.661Z,20.44
2018-07-06T22:32:48.689Z,20.35
2018-07-06T22:35:17.828Z,20.36
2018-07-06T22:37:47.374Z,20.36
2018-07-06T22:40:17.015Z,20.21
2018-07-06T22:42:46.178Z,20.17
2018-07-06T22:45:15.336Z,20.12
2018-07-06T22:47:48.956Z,20.16
2018-07-06T22:50:20.158Z,20.17
2018-07-06T22:52:49.376Z,20.17
2018-07-06T22:55:20.679Z,20.13
2018-07-06T22:57:49.872Z,20.01
2018-07-06T23:00:18.948Z,19.98
2018-07-06T23:02:47.985Z,19.76
2018-07-06T23:05:20.821Z,19.73
2018-07-06T23:07:49.785Z,19.66
2018-07-06T23:10:18.944Z,19.85
2018-07-06T23:12:48.084Z,19.59
2018-07-06T23:15:17.172Z,19.52
2018-07-06T23:17:48.614Z,19.50
2018-07-06T23:20:17.669Z,19.44
2018-07-06T23:23:14.197Z,19.35
2018-07-06T23:25:49.956Z,19.24
2018-07-06T23:28:19.127Z,19.26
2018-07-06T23:30:49.849Z,19.21
2018-07-06T23:33:18.931Z,19.17
2018-07-06T23:35:47.875Z,19.15
2018-07-06T23:38:16.878Z,19.14
2018-07-06T23:40:45.780Z,19.08
2018-07-06T23:43:14.857Z,19.35
2018-07-06T23:45:43.818Z,19.12
2018-07-06T23:48:12.928Z,19.03
2018-07-06T23:50:44.652Z,19.02
2018-07-06T23:53:13.659Z,18.95
2018-07-06T23:55:42.614Z,19.20
2018-07-06T23:58:11.527Z,18.92
